createdAt,value
2023-03-17T00:01:01.798Z,71.53
2023-03-17T00:04:04.369Z,73.57
2023-03-17T00:07:06.655Z,73.12
2023-03-17T00:10:14.507Z,71.84
2023-03-17T00:13:16.459Z,73.05
2023-03-17T00:16:23.996Z,72.80
2023-03-17T00:19:30.811Z,72.99
2023-03-17T00:22:32.769Z,73.48
2023-03-17T00:25:36.044Z,74.05
2023-03-17T00:28:38.663Z,74.43
2023-03-17T00:31:43.729Z,72.87
2023-03-17T00:34:45.928Z,74.41
2023-03-17T00:41:11.991Z,74.45
2023-03-17T00:44:13.891Z,74.94
2023-03-17T00:47:17.591Z,75.79
2023-03-17T00:50:22.750Z,75.60
2023-03-17T00:53:24.573Z,74.47
2023-03-17T00:56:26.496Z,74.52
2023-03-17T00:59:32.002Z,73.86
2023-03-17T01:02:35.594Z,74.14
2023-03-17T01:05:38.178Z,75.89
2023-03-17T01:08:41.500Z,76.48
2023-03-17T01:11:43.832Z,78.05
2023-03-17T01:14:45.823Z,78.12
2023-03-17T01:17:49.805Z,77.92
2023-03-17T01:20:54.690Z,78.93
2023-03-17T01:23:57.235Z,77.52
2023-03-17T01:26:59.132Z,78.02
2023-03-17T01:30:01.387Z,76.79
2023-03-17T01:33:05.867Z,76.68
2023-03-17T01:36:09.918Z,77.78
2023-03-17T01:42:35.923Z,80.46
2023-03-17T01:46:16.575Z,81.27
2023-03-17T01:49:32.249Z,80.58
2023-03-17T01:52:38.250Z,79.96
2023-03-17T01:55:41.869Z,80.33
2023-03-17T01:58:49.489Z,79.64
2023-03-17T02:01:54.767Z,79.23
2023-03-17T02:04:59.102Z,79.01
2023-03-17T02:08:01.165Z,78.52
2023-03-17T02:11:05.310Z,79.20
2023-03-17T02:14:07.275Z,79.71
2023-03-17T02:17:10.103Z,79.92
2023-03-17T02:21:05.408Z,80.49
2023-03-17T02:24:16.213Z,80.68
2023-03-17T02:27:22.067Z,80.57
2023-03-17T02:30:24.932Z,79.95
2023-03-17T02:33:29.757Z,80.64
2023-03-17T02:36:31.747Z,80.88
2023-03-17T02:39:35.205Z,81.04
2023-03-17T02:42:38.007Z,81.71
2023-03-17T02:45:39.922Z,81.35
2023-03-17T02:48:42.583Z,81.40
2023-03-17T02:51:44.746Z,81.34
2023-03-17T02:54:48.237Z,81.11
2023-03-17T02:57:50.500Z,81.62
2023-03-17T03:00:52.835Z,82.08
2023-03-17T03:03:55.617Z,80.60
2023-03-17T03:06:57.539Z,80.80
2023-03-17T03:10:00.812Z,81.97
2023-03-17T03:13:02.613Z,81.97
2023-03-17T03:16:05.119Z,81.79
2023-03-17T03:19:08.117Z,82.00
2023-03-17T03:22:10.470Z,82.89
2023-03-17T03:25:13.689Z,81.91
2023-03-17T03:28:15.956Z,82.36
2023-03-17T03:31:17.872Z,81.46
2023-03-17T03:34:20.107Z,81.59
2023-03-17T03:37:22.417Z,81.56
2023-03-17T03:40:26.759Z,81.70
2023-03-17T03:43:28.851Z,82.13
2023-03-17T03:46:31.102Z,82.53
2023-03-17T03:49:33.154Z,82.89
2023-03-17T03:52:35.036Z,82.94
2023-03-17T03:55:38.572Z,82.48
2023-03-17T03:58:41.896Z,82.21
2023-03-17T04:01:44.156Z,83.42
2023-03-17T04:04:46.372Z,83.86
2023-03-17T04:07:50.148Z,83.50
2023-03-17T04:10:53.301Z,83.98
2023-03-17T04:13:55.246Z,84.39
2023-03-17T04:16:57.285Z,84.30
2023-03-17T04:19:59.242Z,84.80
2023-03-17T04:23:01.133Z,84.33
2023-03-17T04:26:05.658Z,84.94
2023-03-17T04:29:07.993Z,85.34
2023-03-17T04:32:11.782Z,84.86
2023-03-17T04:35:14.849Z,84.16
2023-03-17T04:38:17.087Z,85.02
2023-03-17T04:41:20.646Z,84.55
2023-03-17T04:44:23.577Z,84.06
2023-03-17T04:47:25.790Z,84.63
2023-03-17T04:50:29.809Z,84.35
2023-03-17T04:53:31.995Z,85.26
2023-03-17T04:56:35.761Z,86.28
2023-03-17T04:59:38.018Z,86.53
2023-03-17T05:02:40.190Z,86.33
2023-03-17T05:05:42.089Z,86.59
2023-03-17T05:08:45.112Z,87.76
2023-03-17T05:11:48.600Z,87.01
2023-03-17T05:14:50.755Z,84.94
2023-03-17T05:17:52.984Z,85.57
2023-03-17T05:20:55.522Z,85.92
2023-03-17T05:23:58.005Z,85.98
2023-03-17T05:27:02.454Z,86.32
2023-03-17T05:30:05.436Z,85.99
2023-03-17T05:33:07.443Z,85.46
2023-03-17T05:36:09.971Z,84.48
2023-03-17T05:39:14.450Z,84.30
2023-03-17T05:42:18.012Z,84.27
2023-03-17T05:45:19.810Z,83.73
2023-03-17T05:48:21.988Z,83.76
2023-03-17T05:51:24.217Z,84.18
2023-03-17T05:54:26.296Z,83.84
2023-03-17T05:57:29.771Z,85.25
2023-03-17T06:00:32.269Z,84.85
2023-03-17T06:03:34.334Z,85.32
2023-03-17T06:06:36.263Z,84.60
2023-03-17T06:09:38.110Z,83.48
2023-03-17T06:12:42.415Z,85.65
2023-03-17T06:15:44.965Z,85.16
2023-03-17T06:18:46.799Z,84.32
2023-03-17T06:21:48.865Z,85.59
2023-03-17T06:24:52.118Z,84.88
2023-03-17T06:27:55.300Z,84.02
2023-03-17T06:30:57.538Z,86.46
2023-03-17T06:33:59.782Z,85.35
2023-03-17T06:37:02.051Z,82.83
2023-03-17T06:40:06.486Z,82.87
2023-03-17T06:43:09.926Z,83.06
2023-03-17T06:46:11.854Z,84.50
2023-03-17T06:49:14.045Z,84.35
2023-03-17T06:52:16.219Z,81.05
2023-03-17T06:55:18.229Z,81.58
2023-03-17T06:58:21.553Z,82.63
2023-03-17T07:01:23.507Z,83.63
2023-03-17T07:04:27.008Z,82.32
2023-03-17T07:07:28.983Z,81.29
2023-03-17T07:10:30.840Z,80.50
2023-03-17T07:13:34.444Z,81.41
2023-03-17T07:16:36.245Z,79.47
2023-03-17T07:19:38.270Z,80.42
2023-03-17T07:22:40.680Z,80.64
2023-03-17T07:25:42.788Z,79.80
2023-03-17T07:28:46.407Z,79.21
2023-03-17T07:31:48.683Z,79.85
2023-03-17T07:34:50.936Z,80.77
2023-03-17T07:41:17.103Z,82.88
2023-03-17T07:44:20.517Z,84.17
2023-03-17T07:47:22.350Z,86.38
2023-03-17T07:50:24.940Z,82.38
2023-03-17T07:53:26.944Z,81.55
2023-03-17T07:56:29.149Z,83.35
2023-03-17T07:59:33.006Z,86.13
2023-03-17T08:02:35.720Z,86.79
2023-03-17T08:05:37.832Z,86.86
2023-03-17T08:08:40.070Z,86.88
2023-03-17T08:11:42.275Z,86.40
2023-03-17T08:14:45.727Z,85.91
2023-03-17T08:17:47.990Z,83.02
2023-03-17T08:20:50.739Z,87.06
2023-03-17T08:23:53.057Z,88.58
2023-03-17T08:26:54.893Z,88.75
2023-03-17T08:29:58.221Z,89.35
2023-03-17T08:33:00.168Z,90.22
2023-03-17T08:36:06.236Z,90.17
2023-03-17T08:42:33.487Z,91.02
2023-03-17T08:45:39.084Z,91.31
2023-03-17T08:48:41.584Z,92.45
2023-03-17T08:51:44.144Z,92.80
2023-03-17T08:54:46.435Z,80.71
2023-03-17T08:57:48.277Z,78.24
2023-03-17T09:00:52.786Z,77.05
2023-03-17T09:03:55.260Z,77.09
2023-03-17T09:07:03.859Z,77.78
2023-03-17T09:10:08.464Z,77.46
2023-03-17T09:13:11.525Z,74.56
2023-03-17T09:16:15.925Z,74.95
2023-03-17T09:19:18.056Z,74.04
2023-03-17T09:22:20.358Z,73.89
2023-03-17T09:25:22.399Z,74.38
2023-03-17T09:28:24.510Z,75.10
2023-03-17T09:31:27.915Z,74.97
2023-03-17T09:34:30.171Z,73.00
2023-03-17T09:37:33.059Z,73.22
2023-03-17T09:40:40.015Z,70.91
2023-03-17T09:43:50.431Z,71.87
2023-03-17T09:47:06.978Z,72.96
2023-03-17T09:50:15.659Z,73.60
2023-03-17T09:53:20.883Z,74.59
2023-03-17T09:56:24.328Z,73.86
2023-03-17T09:59:31.028Z,74.06
2023-03-17T10:02:37.200Z,72.99
2023-03-17T10:05:41.197Z,75.02
2023-03-17T10:08:51.479Z,74.37
2023-03-17T10:12:02.098Z,73.57
2023-03-17T10:15:11.546Z,74.29
2023-03-17T10:18:17.112Z,72.23
2023-03-17T10:21:22.849Z,71.50
2023-03-17T10:24:27.903Z,74.94
2023-03-17T10:27:34.287Z,75.74
2023-03-17T10:30:36.453Z,77.61
2023-03-17T10:33:39.768Z,78.56
2023-03-17T10:36:43.998Z,75.27
2023-03-17T10:39:47.532Z,74.25
2023-03-17T10:42:54.415Z,74.79
2023-03-17T10:46:00.770Z,74.12
2023-03-17T10:49:08.108Z,77.86
2023-03-17T10:52:27.974Z,75.07
2023-03-17T10:55:32.123Z,79.56
2023-03-17T10:58:38.079Z,74.19
2023-03-17T11:01:44.512Z,75.53
2023-03-17T11:04:47.956Z,76.78
2023-03-17T11:07:50.542Z,76.00
2023-03-17T11:10:55.479Z,75.40
2023-03-17T11:14:02.591Z,72.41
2023-03-17T11:17:21.506Z,74.96
2023-03-17T11:20:41.872Z,72.09
2023-03-17T11:23:50.912Z,72.89
2023-03-17T11:26:58.083Z,72.35
2023-03-17T11:30:23.153Z,74.17
2023-03-17T11:33:37.924Z,69.98
2023-03-17T11:36:50.842Z,71.83
2023-03-17T11:39:58.606Z,70.52
2023-03-17T11:43:18.266Z,71.17
2023-03-17T11:46:25.413Z,70.48
2023-03-17T11:49:34.233Z,69.02
2023-03-17T11:52:50.607Z,71.33
2023-03-17T11:55:57.400Z,69.48
2023-03-17T11:59:02.189Z,70.06
2023-03-17T12:02:19.564Z,69.60
2023-03-17T12:05:25.038Z,70.58
2023-03-17T12:08:37.738Z,71.55
2023-03-17T12:11:43.625Z,68.07
2023-03-17T12:14:50.007Z,67.92
2023-03-17T12:18:00.519Z,67.55
2023-03-17T12:21:10.059Z,67.05
2023-03-17T12:24:19.052Z,67.97
2023-03-17T12:27:25.828Z,64.74
2023-03-17T12:30:33.534Z,66.95
2023-03-17T12:33:42.749Z,67.02
2023-03-17T12:36:45.410Z,69.46
2023-03-17T12:39:56.408Z,67.15
2023-03-17T12:43:18.430Z,67.16
2023-03-17T12:46:50.358Z,65.54
2023-03-17T12:50:19.377Z,68.47
2023-03-17T12:53:28.771Z,69.31
2023-03-17T12:56:35.017Z,68.66
2023-03-17T12:59:37.626Z,67.77
2023-03-17T13:02:40.521Z,68.02
2023-03-17T13:05:46.485Z,69.80
2023-03-17T13:08:50.890Z,68.33
2023-03-17T13:11:55.001Z,67.65
2023-03-17T13:14:58.661Z,68.56
2023-03-17T13:18:52.740Z,71.48
2023-03-17T13:22:31.908Z,69.32
2023-03-17T13:25:36.419Z,70.78
2023-03-17T13:28:45.700Z,68.71
2023-03-17T13:31:48.809Z,72.18
2023-03-17T13:34:52.805Z,71.48
2023-03-17T13:38:11.625Z,71.16
2023-03-17T13:41:47.409Z,70.39
2023-03-17T13:45:11.318Z,69.86
2023-03-17T13:48:32.135Z,67.67
2023-03-17T13:51:34.356Z,69.27
2023-03-17T13:54:43.126Z,72.90
2023-03-17T13:57:54.492Z,72.77
2023-03-17T14:01:05.620Z,70.36
2023-03-17T14:04:17.597Z,68.60
2023-03-17T14:07:24.707Z,66.92
2023-03-17T14:10:30.322Z,71.52
2023-03-17T14:13:42.240Z,67.81
2023-03-17T14:16:59.230Z,67.18
2023-03-17T14:20:04.151Z,66.20
2023-03-17T14:23:06.599Z,65.83
2023-03-17T14:26:11.844Z,66.80
2023-03-17T14:29:15.719Z,65.83
2023-03-17T14:32:21.125Z,67.32
2023-03-17T14:35:22.988Z,67.18
2023-03-17T14:42:02.460Z,66.12
2023-03-17T14:45:08.020Z,65.83
2023-03-17T14:48:14.963Z,67.12
2023-03-17T14:51:26.634Z,66.17
2023-03-17T14:54:34.324Z,64.92
2023-03-17T14:57:37.920Z,65.26
2023-03-17T15:00:46.710Z,64.59
2023-03-17T15:03:57.988Z,64.21
2023-03-17T15:07:02.419Z,66.81
2023-03-17T15:10:06.789Z,65.04
2023-03-17T15:13:12.466Z,65.54
2023-03-17T15:16:22.663Z,65.80
2023-03-17T15:19:30.007Z,66.04
2023-03-17T15:22:39.594Z,67.61
2023-03-17T15:25:45.795Z,65.96
2023-03-17T15:28:47.662Z,67.31
2023-03-17T15:31:49.578Z,67.46
2023-03-17T15:34:55.749Z,67.05
2023-03-17T15:37:58.080Z,67.46
2023-03-17T15:41:05.156Z,68.74
2023-03-17T15:44:07.483Z,67.36
2023-03-17T15:47:14.382Z,68.58
2023-03-17T15:50:21.924Z,67.08
2023-03-17T15:53:24.485Z,66.10
2023-03-17T15:56:29.418Z,64.30
2023-03-17T15:59:31.716Z,66.13
2023-03-17T16:02:34.951Z,65.70
2023-03-17T16:05:38.181Z,65.90
2023-03-17T16:08:40.257Z,67.75
2023-03-17T16:11:42.226Z,67.43
2023-03-17T16:14:44.078Z,66.94
2023-03-17T16:17:47.579Z,66.58
2023-03-17T16:20:52.958Z,67.50
2023-03-17T16:23:56.018Z,66.83
2023-03-17T16:26:58.488Z,67.87
2023-03-17T16:30:00.330Z,67.63
2023-03-17T16:33:09.191Z,67.40
2023-03-17T16:36:16.770Z,67.11
2023-03-17T16:39:23.908Z,65.18
2023-03-17T16:42:26.010Z,66.27
2023-03-17T16:45:30.479Z,66.77
2023-03-17T16:48:33.206Z,66.10
2023-03-17T16:51:36.728Z,65.73
2023-03-17T16:54:39.148Z,62.98
2023-03-17T16:57:45.980Z,62.68
2023-03-17T17:00:50.973Z,61.58
2023-03-17T17:03:53.920Z,61.73
2023-03-17T17:06:57.693Z,60.92
2023-03-17T17:09:59.624Z,60.91
2023-03-17T17:13:02.910Z,62.28
2023-03-17T17:16:06.199Z,59.52
2023-03-17T17:19:15.443Z,59.90
2023-03-17T17:22:19.439Z,59.50
2023-03-17T17:25:22.354Z,59.71
2023-03-17T17:28:25.590Z,59.07
2023-03-17T17:31:28.562Z,58.55
2023-03-17T17:34:30.783Z,57.86
2023-03-17T17:37:39.526Z,58.19
2023-03-17T17:40:41.966Z,58.35
2023-03-17T17:43:44.459Z,56.90
2023-03-17T17:46:48.884Z,56.31
2023-03-17T17:49:52.969Z,57.52
2023-03-17T17:52:58.248Z,56.82
2023-03-17T17:56:03.781Z,54.75
2023-03-17T17:59:06.603Z,55.29
2023-03-17T18:02:11.576Z,54.78
2023-03-17T18:05:14.266Z,54.37
2023-03-17T18:08:17.927Z,53.17
2023-03-17T18:11:20.856Z,54.46
2023-03-17T18:14:24.651Z,53.76
2023-03-17T18:17:27.244Z,55.04
2023-03-17T18:20:31.054Z,54.48
2023-03-17T18:23:37.065Z,55.05
2023-03-17T18:26:40.500Z,54.29
2023-03-17T18:29:44.001Z,52.81
2023-03-17T18:32:50.343Z,53.38
2023-03-17T18:35:53.639Z,51.59
2023-03-17T18:38:58.422Z,52.74
2023-03-17T18:42:01.132Z,52.31
2023-03-17T18:45:04.614Z,52.75
2023-03-17T18:48:07.419Z,52.86
2023-03-17T18:51:14.863Z,52.14
2023-03-17T18:54:21.268Z,52.14
2023-03-17T18:57:27.179Z,53.24
2023-03-17T19:00:31.489Z,52.95
2023-03-17T19:03:35.260Z,53.70
2023-03-17T19:06:41.867Z,51.69
2023-03-17T19:09:52.649Z,50.96
2023-03-17T19:12:58.176Z,51.87
2023-03-17T19:16:02.096Z,52.49
2023-03-17T19:19:09.544Z,51.30
2023-03-17T19:22:14.864Z,51.43
2023-03-17T19:25:20.592Z,51.80
2023-03-17T19:28:24.197Z,50.74
2023-03-17T19:31:27.736Z,50.67
2023-03-17T19:34:31.802Z,50.79
2023-03-17T19:37:35.873Z,50.35
2023-03-17T19:40:40.887Z,51.78
2023-03-17T19:43:43.757Z,51.43
2023-03-17T19:46:48.788Z,51.22
2023-03-17T19:49:51.992Z,51.32
2023-03-17T19:52:56.260Z,50.86
2023-03-17T19:56:02.200Z,51.62
2023-03-17T19:59:09.653Z,51.70
2023-03-17T20:02:17.629Z,51.86
2023-03-17T20:05:22.535Z,52.08
2023-03-17T20:08:26.695Z,52.77
2023-03-17T20:11:31.972Z,52.54
2023-03-17T20:14:36.467Z,51.88
2023-03-17T20:17:39.688Z,52.43
2023-03-17T20:20:46.280Z,53.04
2023-03-17T20:23:51.543Z,53.28
2023-03-17T20:26:58.015Z,53.35
2023-03-17T20:30:03.112Z,53.46
2023-03-17T20:33:07.413Z,53.62
2023-03-17T20:36:11.856Z,52.66
2023-03-17T20:39:16.116Z,53.89
2023-03-17T20:42:22.188Z,53.43
2023-03-17T20:45:24.849Z,53.87
2023-03-17T20:48:31.292Z,52.69
2023-03-17T20:51:36.234Z,54.33
2023-03-17T20:54:39.916Z,53.29
2023-03-17T20:57:45.404Z,53.69
2023-03-17T21:00:52.872Z,53.53
2023-03-17T21:03:55.823Z,54.47
2023-03-17T21:06:59.413Z,53.04
2023-03-17T21:10:02.534Z,54.36
2023-03-17T21:13:06.855Z,55.06
2023-03-17T21:16:16.087Z,53.33
2023-03-17T21:19:18.290Z,53.89
2023-03-17T21:22:20.454Z,54.51
2023-03-17T21:25:23.683Z,54.91
2023-03-17T21:28:27.904Z,54.79
2023-03-17T21:31:31.532Z,56.30
2023-03-17T21:34:35.171Z,55.74
2023-03-17T21:37:37.577Z,57.14
2023-03-17T21:40:39.550Z,57.77
2023-03-17T21:43:44.477Z,57.80
2023-03-17T21:46:49.196Z,58.04
2023-03-17T21:49:51.445Z,58.27
2023-03-17T21:52:54.295Z,57.17
2023-03-17T21:55:56.423Z,57.75
2023-03-17T21:58:59.730Z,57.77
2023-03-17T22:02:03.254Z,57.79
2023-03-17T22:05:06.519Z,57.83
2023-03-17T22:08:08.698Z,57.58
2023-03-17T22:11:15.151Z,57.51
2023-03-17T22:14:20.185Z,57.98
2023-03-17T22:17:22.757Z,57.34
2023-03-17T22:20:25.499Z,58.73
2023-03-17T22:23:29.394Z,58.34
2023-03-17T22:26:32.004Z,58.03
2023-03-17T22:29:36.006Z,58.54
2023-03-17T22:32:38.684Z,59.23
2023-03-17T22:35:41.255Z,58.12
2023-03-17T22:42:08.960Z,58.73
2023-03-17T22:45:13.223Z,59.20
2023-03-17T22:48:15.350Z,59.65
2023-03-17T22:51:19.803Z,59.70
2023-03-17T22:54:23.353Z,59.27
2023-03-17T22:57:25.884Z,59.92
2023-03-17T23:00:30.628Z,60.62
2023-03-17T23:03:33.450Z,60.96
2023-03-17T23:06:36.638Z,61.01
2023-03-17T23:09:39.111Z,61.33
2023-03-17T23:12:41.582Z,61.98
2023-03-17T23:15:45.307Z,62.09
2023-03-17T23:18:49.016Z,62.21
2023-03-17T23:21:51.234Z,61.64
2023-03-17T23:24:53.359Z,62.88
2023-03-17T23:27:55.700Z,63.68
2023-03-17T23:31:01.208Z,63.60
2023-03-17T23:34:03.759Z,64.64
2023-03-17T23:37:06.449Z,65.88
2023-03-17T23:40:10.599Z,67.03
2023-03-17T23:43:13.210Z,67.01
2023-03-17T23:46:19.362Z,66.68
2023-03-17T23:49:21.705Z,69.42
2023-03-17T23:52:23.960Z,72.00
2023-03-17T23:55:27.099Z,73.15
2023-03-17T23:58:30.088Z,73.12
